KCBK

Shalz Field Airport

Colby, Kansas, USA
METAR KCBK 151915Z AUTO 12007KT 090V160 10SM -RA OVC014 M07/M11 A2993 RMK AO2
Observed Flight Rules
Feb-15 @ 19:15 UTC (16 minutes ago) Marginal Visual Flight Rules
Wind Visibility Clouds Conditions
120° at 7 knots 10 miles
  • Overcast at 1,400' AGL
  • Light Rain
Temperatures Readings
Current -7°C / 19°F
Dewpoint -11°C / 12°F
Humidity 73%
Altimeter 29.93" Hg
Pressure 1013.52 hPa
Elevation 971
METAR KCBK 151915Z AUTO 12007KT 090V160 10SM -RA OVC014 M07/M11 A2993 RMK AO2
Observed Flight Rules
Feb-15 @ 19:15 UTC
(16 minutes ago)
MVFR
Wind Visibility
120° at 7 knots 10 miles
Clouds
  • Overcast at 1,400' AGL
Conditions
  • Light Rain
Temperature Dewpoint
-7°C / 19°F -11°C / 12°F
Humidity Altimeter Pressure
73% 29.93" Hg 1013.52 hPa